Aviation Digital Data Service (ADDS)

Output produced by METARs form (1325 UTC 20 July 2019)
found at http://www.aviationweather.gov/metar/data/
 
METAR text: RJDT 201100Z VRB11G24KT 9000 FEW006 SCT010 BKN015 24/23 Q1003
Conditions at: RJDT (TSUSHIMA AIRPORT, JP) observed 1100 UTC 20 July 2019
Temperature: 24.0°C (75°F)
Dewpoint: 23.0°C (73°F) [RH = 94%]
Pressure (altimeter): 29.62 inches Hg (1003.0 mb)
Winds: variable direction winds at 13 MPH (11 knots; 5.7 m/s)
gusting to 28 MPH (24 knots; 12.3 m/s)
Visibility: 6 miles ( 9 km)
Ceiling: 1500 feet AGL
Clouds: few clouds at 600 feet AGL
scattered clouds at 1000 feet AGL
broken clouds at 1500 feet AGL
Weather: no significant weather observed at this time

METAR text: RJDT 201000Z VRB10G21KT 9000 -SHRA FEW004 SCT007 BKN010 24/23 Q1003
Conditions at: RJDT (TSUSHIMA AIRPORT, JP) observed 1000 UTC 20 July 2019
Temperature: 24.0°C (75°F)
Dewpoint: 23.0°C (73°F) [RH = 94%]
Pressure (altimeter): 29.62 inches Hg (1003.0 mb)
Winds: variable direction winds at 12 MPH (10 knots; 5.1 m/s)
gusting to 24 MPH (21 knots; 10.8 m/s)
Visibility: 6 miles ( 9 km)
Ceiling: 1000 feet AGL
Clouds: few clouds at 400 feet AGL
scattered clouds at 700 feet AGL
broken clouds at 1000 feet AGL
Weather: -SHRA  (light rain showers)

METAR text: RJDT 200900Z VRB09G21KT 7000 FEW002 SCT007 BKN010 24/24 Q1002
Conditions at: RJDT (TSUSHIMA AIRPORT, JP) observed 0900 UTC 20 July 2019
Temperature: 24.0°C (75°F)
Dewpoint: 24.0°C (75°F) [RH = 100%]
Pressure (altimeter): 29.59 inches Hg (1002.0 mb)
Winds: variable direction winds at 10 MPH (9 knots; 4.6 m/s)
gusting to 24 MPH (21 knots; 10.8 m/s)
Visibility: 4 miles ( 7 km)
Ceiling: 1000 feet AGL
Clouds: few clouds at 200 feet AGL
scattered clouds at 700 feet AGL
broken clouds at 1000 feet AGL
Weather: no significant weather observed at this time

METAR text: RJDT 200800Z VRB10G21KT 6000 FEW002 SCT007 BKN010 24/24 Q1002
Conditions at: RJDT (TSUSHIMA AIRPORT, JP) observed 0800 UTC 20 July 2019
Temperature: 24.0°C (75°F)
Dewpoint: 24.0°C (75°F) [RH = 100%]
Pressure (altimeter): 29.59 inches Hg (1002.0 mb)
Winds: variable direction winds at 12 MPH (10 knots; 5.1 m/s)
gusting to 24 MPH (21 knots; 10.8 m/s)
Visibility: 4 miles ( 6 km)
Ceiling: 1000 feet AGL
Clouds: few clouds at 200 feet AGL
scattered clouds at 700 feet AGL
broken clouds at 1000 feet AGL
Weather: no significant weather observed at this time

METAR text: RJDT 200710Z VRB13G26KT 6000 -SHRA FEW003 SCT007 BKN010 24/24 Q1001 RMK 1ST003 3ST007 5CU010 A2958
Conditions at: RJDT (TSUSHIMA AIRPORT, JP) observed 0710 UTC 20 July 2019
Temperature: 24.0°C (75°F)
Dewpoint: 24.0°C (75°F) [RH = 100%]
Pressure (altimeter): 29.56 inches Hg (1001.0 mb)
Winds: variable direction winds at 15 MPH (13 knots; 6.7 m/s)
gusting to 30 MPH (26 knots; 13.4 m/s)
Visibility: 4 miles ( 6 km)
Ceiling: 1000 feet AGL
Clouds: few clouds at 300 feet AGL
scattered clouds at 700 feet AGL
broken clouds at 1000 feet AGL
Weather: -SHRA  (light rain showers)

METAR text: RJDT 200700Z 19015G36KT 110V260 3000 -SHRA BR FEW002 SCT004 BKN006 24/24 Q1001
Conditions at: RJDT (TSUSHIMA AIRPORT, JP) observed 0700 UTC 20 July 2019
Temperature: 24.0°C (75°F)
Dewpoint: 24.0°C (75°F) [RH = 100%]
Pressure (altimeter): 29.56 inches Hg (1001.0 mb)
Winds: from the S (190 degrees) at 17 MPH (15 knots; 7.7 m/s)
gusting to 41 MPH (36 knots; 18.5 m/s)
Visibility: 1.86 miles (2.99 km)
Ceiling: 600 feet AGL
Clouds: few clouds at 200 feet AGL
scattered clouds at 400 feet AGL
broken clouds at 600 feet AGL
Weather: -SHRA BR  (light rain showers, mist)

METAR text: RJDT 200641Z 17011G24KT 120V230 1800 SHRA BR FEW001 SCT003 BKN004 24/24 Q1001 RMK 1ST001 3ST003 7ST004 A2957
Conditions at: RJDT (TSUSHIMA AIRPORT, JP) observed 0641 UTC 20 July 2019
Temperature: 24.0°C (75°F)
Dewpoint: 24.0°C (75°F) [RH = 100%]
Pressure (altimeter): 29.56 inches Hg (1001.0 mb)
Winds: from the S (170 degrees) at 13 MPH (11 knots; 5.7 m/s)
gusting to 28 MPH (24 knots; 12.3 m/s)
Visibility: 1.12 miles (1.80 km)
Ceiling: 400 feet AGL
Clouds: few clouds at 100 feet AGL
scattered clouds at 300 feet AGL
broken clouds at 400 feet AGL
Weather: SHRA BR  (rain showers, mist)

METAR text: RJDT 200620Z 16008KT 100V210 6000 -SHRA FEW002 SCT010 BKN020 24/23 Q1000 RMK 2ST002 3ST010 5CU020 A2955
Conditions at: RJDT (TSUSHIMA AIRPORT, JP) observed 0620 UTC 20 July 2019
Temperature: 24.0°C (75°F)
Dewpoint: 23.0°C (73°F) [RH = 94%]
Pressure (altimeter): 29.53 inches Hg (1000.0 mb)
Winds: from the SSE (160 degrees) at 9 MPH (8 knots; 4.1 m/s)
Visibility: 4 miles ( 6 km)
Ceiling: 2000 feet AGL
Clouds: few clouds at 200 feet AGL
scattered clouds at 1000 feet AGL
broken clouds at 2000 feet AGL
Weather: -SHRA  (light rain showers)

METAR text: RJDT 200600Z 17006KT 110V220 4500 -SHRA BR FEW002 SCT004 BKN010 24/24 Q1001
Conditions at: RJDT (TSUSHIMA AIRPORT, JP) observed 0600 UTC 20 July 2019
Temperature: 24.0°C (75°F)
Dewpoint: 24.0°C (75°F) [RH = 100%]
Pressure (altimeter): 29.56 inches Hg (1001.0 mb)
Winds: from the S (170 degrees) at 7 MPH (6 knots; 3.1 m/s)
Visibility: 2.80 miles (4.51 km)
Ceiling: 1000 feet AGL
Clouds: few clouds at 200 feet AGL
scattered clouds at 400 feet AGL
broken clouds at 1000 feet AGL
Weather: -SHRA BR  (light rain showers, mist)

METAR text: RJDT 200542Z 17010KT 120V220 3500 SHRA BR FEW002 SCT007 BKN010 24/24 Q1001 RMK 1ST002 3ST007 5ST010 A2958
Conditions at: RJDT (TSUSHIMA AIRPORT, JP) observed 0542 UTC 20 July 2019
Temperature: 24.0°C (75°F)
Dewpoint: 24.0°C (75°F) [RH = 100%]
Pressure (altimeter): 29.56 inches Hg (1001.0 mb)
Winds: from the S (170 degrees) at 12 MPH (10 knots; 5.1 m/s)
Visibility: 2.17 miles (3.49 km)
Ceiling: 1000 feet AGL
Clouds: few clouds at 200 feet AGL
scattered clouds at 700 feet AGL
broken clouds at 1000 feet AGL
Weather: SHRA BR  (rain showers, mist)

METAR text: RJDT 200531Z 16011KT 100V210 6000 -SHRA FEW002 SCT007 BKN015 24/24 Q1001 RMK 1ST002 3ST007 5ST015 A2957
Conditions at: RJDT (TSUSHIMA AIRPORT, JP) observed 0531 UTC 20 July 2019
Temperature: 24.0°C (75°F)
Dewpoint: 24.0°C (75°F) [RH = 100%]
Pressure (altimeter): 29.56 inches Hg (1001.0 mb)
Winds: from the SSE (160 degrees) at 13 MPH (11 knots; 5.7 m/s)
Visibility: 4 miles ( 6 km)
Ceiling: 1500 feet AGL
Clouds: few clouds at 200 feet AGL
scattered clouds at 700 feet AGL
broken clouds at 1500 feet AGL
Weather: -SHRA  (light rain showers)

METAR text: RJDT 200500Z 17011G21KT 130V220 3000 SHRA BR FEW002 SCT007 BKN010 24/24 Q1002
Conditions at: RJDT (TSUSHIMA AIRPORT, JP) observed 0500 UTC 20 July 2019
Temperature: 24.0°C (75°F)
Dewpoint: 24.0°C (75°F) [RH = 100%]
Pressure (altimeter): 29.59 inches Hg (1002.0 mb)
Winds: from the S (170 degrees) at 13 MPH (11 knots; 5.7 m/s)
gusting to 24 MPH (21 knots; 10.8 m/s)
Visibility: 1.86 miles (2.99 km)
Ceiling: 1000 feet AGL
Clouds: few clouds at 200 feet AGL
scattered clouds at 700 feet AGL
broken clouds at 1000 feet AGL
Weather: SHRA BR  (rain showers, mist)

METAR text: RJDT 200432Z 18011G23KT 130V280 1200 SHRA BR FEW000 SCT001 BKN002 24/24 Q1002 RMK 1ST000 3ST001 6ST002 A2960
Conditions at: RJDT (TSUSHIMA AIRPORT, JP) observed 0432 UTC 20 July 2019
Temperature: 24.0°C (75°F)
Dewpoint: 24.0°C (75°F) [RH = 100%]
Pressure (altimeter): 29.59 inches Hg (1002.0 mb)
Winds: from the S (180 degrees) at 13 MPH (11 knots; 5.7 m/s)
gusting to 26 MPH (23 knots; 11.8 m/s)
Visibility: 0.75 miles (1.21 km)
Ceiling: 200 feet AGL
Clouds: few clouds at 0 feet AGL
scattered clouds at 100 feet AGL
broken clouds at 200 feet AGL
Weather: SHRA BR  (rain showers, mist)

METAR text: RJDT 200400Z 16014G26KT 120V200 0800 +SHRA FEW000 SCT001 BKN002 23/23 Q1002
Conditions at: RJDT (TSUSHIMA AIRPORT, JP) observed 0400 UTC 20 July 2019
Temperature: 23.0°C (73°F)
Dewpoint: 23.0°C (73°F) [RH = 100%]
Pressure (altimeter): 29.59 inches Hg (1002.0 mb)
Winds: from the SSE (160 degrees) at 16 MPH (14 knots; 7.2 m/s)
gusting to 30 MPH (26 knots; 13.4 m/s)
Visibility: 0.50 miles (0.80 km)
Ceiling: 200 feet AGL
Clouds: few clouds at 0 feet AGL
scattered clouds at 100 feet AGL
broken clouds at 200 feet AGL
Weather: +SHRA  (heavy rain showers)

METAR text: RJDT 200325Z 16007KT 130V200 1000 +SHRA FEW000 SCT002 BKN003 23/23 Q1002 RMK 1ST000 3ST002 5ST003 A2959 RI++
Conditions at: RJDT (TSUSHIMA AIRPORT, JP) observed 0325 UTC 20 July 2019
Temperature: 23.0°C (73°F)
Dewpoint: 23.0°C (73°F) [RH = 100%]
Pressure (altimeter): 29.59 inches Hg (1002.0 mb)
Winds: from the SSE (160 degrees) at 8 MPH (7 knots; 3.6 m/s)
Visibility: 0.62 miles (1.00 km)
Ceiling: 300 feet AGL
Clouds: few clouds at 0 feet AGL
scattered clouds at 200 feet AGL
broken clouds at 300 feet AGL
Weather: +SHRA  (heavy rain showers)

METAR text: RJDT 200300Z 13018KT 2000 +SHRA FEW001 SCT015 BKN020 23/23 Q1002
Conditions at: RJDT (TSUSHIMA AIRPORT, JP) observed 0300 UTC 20 July 2019
Temperature: 23.0°C (73°F)
Dewpoint: 23.0°C (73°F) [RH = 100%]
Pressure (altimeter): 29.59 inches Hg (1002.0 mb)
Winds: from the SE (130 degrees) at 21 MPH (18 knots; 9.3 m/s)
Visibility: 1.24 miles (2.00 km)
Ceiling: 2000 feet AGL
Clouds: few clouds at 100 feet AGL
scattered clouds at 1500 feet AGL
broken clouds at 2000 feet AGL
Weather: +SHRA  (heavy rain showers)

METAR text: RJDT 200227Z 14019KT 100V170 2000 +SHRA FEW001 SCT015 BKN020 23/23 Q1003 RMK 1ST001 3CU015 5CU020 A2962
Conditions at: RJDT (TSUSHIMA AIRPORT, JP) observed 0227 UTC 20 July 2019
Temperature: 23.0°C (73°F)
Dewpoint: 23.0°C (73°F) [RH = 100%]
Pressure (altimeter): 29.62 inches Hg (1003.0 mb)
Winds: from the SE (140 degrees) at 22 MPH (19 knots; 9.8 m/s)
Visibility: 1.24 miles (2.00 km)
Ceiling: 2000 feet AGL
Clouds: few clouds at 100 feet AGL
scattered clouds at 1500 feet AGL
broken clouds at 2000 feet AGL
Weather: +SHRA  (heavy rain showers)

METAR text: RJDT 200220Z 13020KT 4000 SHRA FEW001 SCT015 BKN020 24/23 Q1002 RMK 1ST001 3CU015 5CU020 A2961
Conditions at: RJDT (TSUSHIMA AIRPORT, JP) observed 0220 UTC 20 July 2019
Temperature: 24.0°C (75°F)
Dewpoint: 23.0°C (73°F) [RH = 94%]
Pressure (altimeter): 29.59 inches Hg (1002.0 mb)
Winds: from the SE (130 degrees) at 23 MPH (20 knots; 10.3 m/s)
Visibility: 2.49 miles (4.01 km)
Ceiling: 2000 feet AGL
Clouds: few clouds at 100 feet AGL
scattered clouds at 1500 feet AGL
broken clouds at 2000 feet AGL
Weather: SHRA  (rain showers)

METAR text: RJDT 200200Z 12022KT 2000 +SHRA FEW001 SCT015 BKN020 24/23 Q1002
Conditions at: RJDT (TSUSHIMA AIRPORT, JP) observed 0200 UTC 20 July 2019
Temperature: 24.0°C (75°F)
Dewpoint: 23.0°C (73°F) [RH = 94%]
Pressure (altimeter): 29.59 inches Hg (1002.0 mb)
Winds: from the ESE (120 degrees) at 25 MPH (22 knots; 11.3 m/s)
Visibility: 1.24 miles (2.00 km)
Ceiling: 2000 feet AGL
Clouds: few clouds at 100 feet AGL
scattered clouds at 1500 feet AGL
broken clouds at 2000 feet AGL
Weather: +SHRA  (heavy rain showers)

METAR text: RJDT 200110Z 14021G31KT 2000 +SHRA FEW002 BKN020 23/23 Q1003 RMK 1ST002 7CU020 A2962
Conditions at: RJDT (TSUSHIMA AIRPORT, JP) observed 0110 UTC 20 July 2019
Temperature: 23.0°C (73°F)
Dewpoint: 23.0°C (73°F) [RH = 100%]
Pressure (altimeter): 29.62 inches Hg (1003.0 mb)
Winds: from the SE (140 degrees) at 24 MPH (21 knots; 10.8 m/s)
gusting to 36 MPH (31 knots; 15.9 m/s)
Visibility: 1.24 miles (2.00 km)
Ceiling: 2000 feet AGL
Clouds: few clouds at 200 feet AGL
broken clouds at 2000 feet AGL
Weather: +SHRA  (heavy rain showers)

METAR text: RJDT 200100Z 14017G28KT 110V180 4000 SHRA FEW003 SCT020 BKN025 23/23 Q1002
Conditions at: RJDT (TSUSHIMA AIRPORT, JP) observed 0100 UTC 20 July 2019
Temperature: 23.0°C (73°F)
Dewpoint: 23.0°C (73°F) [RH = 100%]
Pressure (altimeter): 29.59 inches Hg (1002.0 mb)
Winds: from the SE (140 degrees) at 20 MPH (17 knots; 8.7 m/s)
gusting to 32 MPH (28 knots; 14.4 m/s)
Visibility: 2.49 miles (4.01 km)
Ceiling: 2500 feet AGL
Clouds: few clouds at 300 feet AGL
scattered clouds at 2000 feet AGL
broken clouds at 2500 feet AGL
Weather: SHRA  (rain showers)

METAR text: RJDT 200042Z 15011KT 120V190 4000 SHRA FEW001 SCT003 BKN025 23/23 Q1003 RMK 1ST001 3ST003 7CU025 A2962
Conditions at: RJDT (TSUSHIMA AIRPORT, JP) observed 0042 UTC 20 July 2019
Temperature: 23.0°C (73°F)
Dewpoint: 23.0°C (73°F) [RH = 100%]
Pressure (altimeter): 29.62 inches Hg (1003.0 mb)
Winds: from the SSE (150 degrees) at 13 MPH (11 knots; 5.7 m/s)
Visibility: 2.49 miles (4.01 km)
Ceiling: 2500 feet AGL
Clouds: few clouds at 100 feet AGL
scattered clouds at 300 feet AGL
broken clouds at 2500 feet AGL
Weather: SHRA  (rain showers)

METAR text: RJDT 200000Z 17013KT 120V200 0800 +SHRA FEW000 SCT001 BKN002 23/23 Q1003
Conditions at: RJDT (TSUSHIMA AIRPORT, JP) observed 0000 UTC 20 July 2019
Temperature: 23.0°C (73°F)
Dewpoint: 23.0°C (73°F) [RH = 100%]
Pressure (altimeter): 29.62 inches Hg (1003.0 mb)
Winds: from the S (170 degrees) at 15 MPH (13 knots; 6.7 m/s)
Visibility: 0.50 miles (0.80 km)
Ceiling: 200 feet AGL
Clouds: few clouds at 0 feet AGL
scattered clouds at 100 feet AGL
broken clouds at 200 feet AGL
Weather: +SHRA  (heavy rain showers)

METAR text: RJDT 192300Z 16008KT 120V230 0900 +SHRA FEW000 SCT001 BKN002 23/23 Q1003
Conditions at: RJDT (TSUSHIMA AIRPORT, JP) observed 2300 UTC 19 July 2019
Temperature: 23.0°C (73°F)
Dewpoint: 23.0°C (73°F) [RH = 100%]
Pressure (altimeter): 29.62 inches Hg (1003.0 mb)
Winds: from the SSE (160 degrees) at 9 MPH (8 knots; 4.1 m/s)
Visibility: 0.56 miles (0.90 km)
Ceiling: 200 feet AGL
Clouds: few clouds at 0 feet AGL
scattered clouds at 100 feet AGL
broken clouds at 200 feet AGL
Weather: +SHRA  (heavy rain showers)

METAR text: RJDT 192230Z 15008KT 110V200 1000 +SHRA FEW000 SCT001 BKN002 24/24 Q1003
Conditions at: RJDT (TSUSHIMA AIRPORT, JP) observed 2230 UTC 19 July 2019
Temperature: 24.0°C (75°F)
Dewpoint: 24.0°C (75°F) [RH = 100%]
Pressure (altimeter): 29.62 inches Hg (1003.0 mb)
Winds: from the SSE (150 degrees) at 9 MPH (8 knots; 4.1 m/s)
Visibility: 0.62 miles (1.00 km)
Ceiling: 200 feet AGL
Clouds: few clouds at 0 feet AGL
scattered clouds at 100 feet AGL
broken clouds at 200 feet AGL
Weather: +SHRA  (heavy rain showers)

METAR text: RJDT 191100Z 10014KT 7000 -RA FEW002 SCT100 OVC130 24/24 Q1007
Conditions at: RJDT (TSUSHIMA AIRPORT, JP) observed 1100 UTC 19 July 2019
Temperature: 24.0°C (75°F)
Dewpoint: 24.0°C (75°F) [RH = 100%]
Pressure (altimeter): 29.73 inches Hg (1007.0 mb)
Winds: from the E (100 degrees) at 16 MPH (14 knots; 7.2 m/s)
Visibility: 4 miles ( 7 km)
Ceiling: 13000 feet AGL
Clouds: few clouds at 200 feet AGL
scattered clouds at 10000 feet AGL
overcast cloud deck at 13000 feet AGL
Weather: -RA  (light rain)

METAR text: RJDT 191000Z 11010KT 070V140 7000 -RA FEW002 SCT110 OVC130 24/24 Q1007
Conditions at: RJDT (TSUSHIMA AIRPORT, JP) observed 1000 UTC 19 July 2019
Temperature: 24.0°C (75°F)
Dewpoint: 24.0°C (75°F) [RH = 100%]
Pressure (altimeter): 29.73 inches Hg (1007.0 mb)
Winds: from the ESE (110 degrees) at 12 MPH (10 knots; 5.1 m/s)
Visibility: 4 miles ( 7 km)
Ceiling: 13000 feet AGL
Clouds: few clouds at 200 feet AGL
scattered clouds at 11000 feet AGL
overcast cloud deck at 13000 feet AGL
Weather: -RA  (light rain)

METAR text: RJDT 190900Z 13007KT 100V170 7000 -RA FEW002 SCT110 OVC130 24/23 Q1007
Conditions at: RJDT (TSUSHIMA AIRPORT, JP) observed 0900 UTC 19 July 2019
Temperature: 24.0°C (75°F)
Dewpoint: 23.0°C (73°F) [RH = 94%]
Pressure (altimeter): 29.73 inches Hg (1007.0 mb)
Winds: from the SE (130 degrees) at 8 MPH (7 knots; 3.6 m/s)
Visibility: 4 miles ( 7 km)
Ceiling: 13000 feet AGL
Clouds: few clouds at 200 feet AGL
scattered clouds at 11000 feet AGL
overcast cloud deck at 13000 feet AGL
Weather: -RA  (light rain)

METAR text: RJDT 190800Z 16003KT 120V190 8000 -RA FEW003 SCT080 OVC120 23/23 Q1007
Conditions at: RJDT (TSUSHIMA AIRPORT, JP) observed 0800 UTC 19 July 2019
Temperature: 23.0°C (73°F)
Dewpoint: 23.0°C (73°F) [RH = 100%]
Pressure (altimeter): 29.73 inches Hg (1007.0 mb)
Winds: from the SSE (160 degrees) at 3 MPH (3 knots; 1.5 m/s)
Visibility: 5 miles ( 8 km)
Ceiling: 12000 feet AGL
Clouds: few clouds at 300 feet AGL
scattered clouds at 8000 feet AGL
overcast cloud deck at 12000 feet AGL
Weather: -RA  (light rain)

METAR text: RJDT 190700Z 14005KT 120V200 8000 -RA FEW003 SCT110 OVC140 24/23 Q1007
Conditions at: RJDT (TSUSHIMA AIRPORT, JP) observed 0700 UTC 19 July 2019
Temperature: 24.0°C (75°F)
Dewpoint: 23.0°C (73°F) [RH = 94%]
Pressure (altimeter): 29.73 inches Hg (1007.0 mb)
Winds: from the SE (140 degrees) at 6 MPH (5 knots; 2.6 m/s)
Visibility: 5 miles ( 8 km)
Ceiling: 14000 feet AGL
Clouds: few clouds at 300 feet AGL
scattered clouds at 11000 feet AGL
overcast cloud deck at 14000 feet AGL
Weather: -RA  (light rain)

METAR text: RJDT 190600Z 17005KT 130V240 8000 -RA FEW003 SCT080 OVC100 24/23 Q1008
Conditions at: RJDT (TSUSHIMA AIRPORT, JP) observed 0600 UTC 19 July 2019
Temperature: 24.0°C (75°F)
Dewpoint: 23.0°C (73°F) [RH = 94%]
Pressure (altimeter): 29.76 inches Hg (1008.0 mb)
Winds: from the S (170 degrees) at 6 MPH (5 knots; 2.6 m/s)
Visibility: 5 miles ( 8 km)
Ceiling: 10000 feet AGL
Clouds: few clouds at 300 feet AGL
scattered clouds at 8000 feet AGL
overcast cloud deck at 10000 feet AGL
Weather: -RA  (light rain)

METAR text: RJDT 190540Z 17006KT 130V230 7000 -RA FEW002 SCT005 BKN080 24/23 Q1008 RMK 1ST002 3ST005 6AC080 A2977
Conditions at: RJDT (TSUSHIMA AIRPORT, JP) observed 0540 UTC 19 July 2019
Temperature: 24.0°C (75°F)
Dewpoint: 23.0°C (73°F) [RH = 94%]
Pressure (altimeter): 29.76 inches Hg (1008.0 mb)
Winds: from the S (170 degrees) at 7 MPH (6 knots; 3.1 m/s)
Visibility: 4 miles ( 7 km)
Ceiling: 8000 feet AGL
Clouds: few clouds at 200 feet AGL
scattered clouds at 500 feet AGL
broken clouds at 8000 feet AGL
Weather: -RA  (light rain)

METAR text: RJDT 190500Z 17007KT 130V230 6000 -RA FEW002 BKN005 BKN070 23/23 Q1008
Conditions at: RJDT (TSUSHIMA AIRPORT, JP) observed 0500 UTC 19 July 2019
Temperature: 23.0°C (73°F)
Dewpoint: 23.0°C (73°F) [RH = 100%]
Pressure (altimeter): 29.76 inches Hg (1008.0 mb)
Winds: from the S (170 degrees) at 8 MPH (7 knots; 3.6 m/s)
Visibility: 4 miles ( 6 km)
Ceiling: 500 feet AGL
Clouds: few clouds at 200 feet AGL
broken clouds at 500 feet AGL
broken clouds at 7000 feet AGL
Weather: -RA  (light rain)

METAR text: RJDT 190400Z 15005KT 130V190 6000 -RA FEW002 BKN006 BKN080 23/23 Q1008
Conditions at: RJDT (TSUSHIMA AIRPORT, JP) observed 0400 UTC 19 July 2019
Temperature: 23.0°C (73°F)
Dewpoint: 23.0°C (73°F) [RH = 100%]
Pressure (altimeter): 29.76 inches Hg (1008.0 mb)
Winds: from the SSE (150 degrees) at 6 MPH (5 knots; 2.6 m/s)
Visibility: 4 miles ( 6 km)
Ceiling: 600 feet AGL
Clouds: few clouds at 200 feet AGL
broken clouds at 600 feet AGL
broken clouds at 8000 feet AGL
Weather: -RA  (light rain)

METAR text: RJDT 190337Z 16005KT 110V200 7000 -RA FEW002 BKN006 BKN080 23/23 Q1009 RMK 1ST002 5ST006 7AC080 A2980
Conditions at: RJDT (TSUSHIMA AIRPORT, JP) observed 0337 UTC 19 July 2019
Temperature: 23.0°C (73°F)
Dewpoint: 23.0°C (73°F) [RH = 100%]
Pressure (altimeter): 29.79 inches Hg (1009.0 mb)
Winds: from the SSE (160 degrees) at 6 MPH (5 knots; 2.6 m/s)
Visibility: 4 miles ( 7 km)
Ceiling: 600 feet AGL
Clouds: few clouds at 200 feet AGL
broken clouds at 600 feet AGL
broken clouds at 8000 feet AGL
Weather: -RA  (light rain)

METAR text: RJDT 190300Z 13007KT 8000 -RA FEW002 SCT007 BKN080 23/23 Q1009
Conditions at: RJDT (TSUSHIMA AIRPORT, JP) observed 0300 UTC 19 July 2019
Temperature: 23.0°C (73°F)
Dewpoint: 23.0°C (73°F) [RH = 100%]
Pressure (altimeter): 29.79 inches Hg (1009.0 mb)
Winds: from the SE (130 degrees) at 8 MPH (7 knots; 3.6 m/s)
Visibility: 5 miles ( 8 km)
Ceiling: 8000 feet AGL
Clouds: few clouds at 200 feet AGL
scattered clouds at 700 feet AGL
broken clouds at 8000 feet AGL
Weather: -RA  (light rain)

METAR text: RJDT 190224Z 13007KT 7000 -SHRA FEW001 SCT007 BKN040 23/23 Q1009 RMK 1ST001 4ST007 7CU040 A2981
Conditions at: RJDT (TSUSHIMA AIRPORT, JP) observed 0224 UTC 19 July 2019
Temperature: 23.0°C (73°F)
Dewpoint: 23.0°C (73°F) [RH = 100%]
Pressure (altimeter): 29.79 inches Hg (1009.0 mb)
Winds: from the SE (130 degrees) at 8 MPH (7 knots; 3.6 m/s)
Visibility: 4 miles ( 7 km)
Ceiling: 4000 feet AGL
Clouds: few clouds at 100 feet AGL
scattered clouds at 700 feet AGL
broken clouds at 4000 feet AGL
Weather: -SHRA  (light rain showers)

METAR text: RJDT 190200Z 13005KT 7000 -SHRA FEW001 SCT004 BKN007 23/23 Q1009
Conditions at: RJDT (TSUSHIMA AIRPORT, JP) observed 0200 UTC 19 July 2019
Temperature: 23.0°C (73°F)
Dewpoint: 23.0°C (73°F) [RH = 100%]
Pressure (altimeter): 29.79 inches Hg (1009.0 mb)
Winds: from the SE (130 degrees) at 6 MPH (5 knots; 2.6 m/s)
Visibility: 4 miles ( 7 km)
Ceiling: 700 feet AGL
Clouds: few clouds at 100 feet AGL
scattered clouds at 400 feet AGL
broken clouds at 700 feet AGL
Weather: -SHRA  (light rain showers)